Venezia — 9HA4659 — position and weather

sailwx.info

Track history (hours):
 
Tides and Currents Weather Stations Pressure Air Temp Water Temp Dewpoint Dewpoint Depression Visibility Wind Speed Wind Dir Waves Ship Positions

Venezia

Last reported at 2017-Dec-10 00:27 UTC. Time now 2017-Dec-18 16:48 UTC.
Position N 34°08' E 138°13'.
Warning: this ship's position is 8 days out of date.

Length 199 m; draft 11.5 m.

Type: Cargo ship. MMSI: 248457000.

Date/timePositionNaut miles runAvg speedWind from/ knotsBaromVisibWave heightAir tempDewpointWater temp
2017-Dec-10 00:27N 34°08' E 138°13'713.5
2017-Dec-09 23:55N 34°11' E 138°22'613.4
2017-Dec-09 23:30N 34°13' E 138°28'713.3
2017-Dec-09 23:00N 34°17' E 138°34'713.1
2017-Dec-09 22:30N 34°20' E 138°41'712.9
2017-Dec-09 21:57N 34°24' E 138°48'612.6
2017-Dec-09 21:30N 34°27' E 138°54'612.0
2017-Dec-09 21:00N 34°30' E 139°00'711.7
2017-Dec-09 20:26N 34°36' E 139°05'511.8
2017-Dec-09 19:59N 34°40' E 139°08'612.5
2017-Dec-09 19:30N 34°46' E 139°11'612.3
2017-Dec-09 19:00N 34°51' E 139°14'611.7
2017-Dec-09 18:30N 34°55' E 139°20'612.3
2017-Dec-09 18:00N 34°58' E 139°26'612.5
2017-Dec-09 17:30N 35°01' E 139°33'612.7
2017-Dec-09 17:00N 35°04' E 139°40'611.7
2017-Dec-09 16:30N 35°08' E 139°45'611.3
2017-Dec-09 16:00N 35°14' E 139°46'611.9
2017-Dec-09 15:30N 35°19' E 139°43'612.2
2017-Dec-09 15:00N 35°25' E 139°44'611.4
2017-Dec-09 14:30N 35°30' E 139°48'3 6.2
2017-Dec-09 14:00N 35°30' E 139°44'0 0.4
2017-Dec-09 13:30N 35°30' E 139°44'0 0.0
2017-Dec-09 13:00N 35°30' E 139°44'0 0.0
2017-Dec-09 12:30N 35°30' E 139°44'0 0.0
2017-Dec-09 12:00N 35°30' E 139°44'0 0.0
2017-Dec-09 11:30N 35°30' E 139°44'0 0.0
2017-Dec-09 11:00N 35°30' E 139°44'0 0.0
2017-Dec-09 10:30N 35°30' E 139°44'0 0.0
2017-Dec-09 10:00N 35°30' E 139°44'0 0.0
2017-Dec-09 09:30N 35°30' E 139°44'0 0.0
2017-Dec-09 09:00N 35°30' E 139°44'0 0.0
2017-Dec-09 08:30N 35°30' E 139°44'0 0.0
2017-Dec-09 08:00N 35°30' E 139°44'0 0.0
2017-Dec-09 07:30N 35°30' E 139°44'0 0.0
2017-Dec-09 06:57N 35°30' E 139°44'0 0.0
2017-Dec-09 06:30N 35°30' E 139°44'0 0.0
2017-Dec-09 06:00N 35°30' E 139°44'0 0.0
2017-Dec-09 05:30N 35°30' E 139°44'0 0.0
2017-Dec-09 05:00N 35°30' E 139°44'0 0.0
2017-Dec-09 04:30N 35°30' E 139°44'0 0.0
2017-Dec-09 03:57N 35°30' E 139°44'0 0.0
2017-Dec-09 03:30N 35°30' E 139°44'0 0.0
2017-Dec-09 03:00N 35°30' E 139°44'0 0.0
2017-Dec-09 02:30N 35°30' E 139°44'0 0.0
2017-Dec-09 02:00N 35°30' E 139°44'0 0.0
2017-Dec-09 01:30N 35°30' E 139°44'0 0.0
2017-Dec-09 00:57N 35°30' E 139°44'0 0.0
2017-Dec-09 00:30N 35°30' E 139°44'0 0.0
2017-Dec-09 00:00N 35°30' E 139°44'0 0.0
2017-Dec-08 23:30N 35°30' E 139°44'0 0.0
2017-Dec-08 23:00N 35°30' E 139°44'2 4.1
2017-Dec-08 22:31N 35°29' E 139°42'3 6.6
2017-Dec-08 22:00N 35°27' E 139°45'1 1.9
2017-Dec-08 21:29N 35°27' E 139°47'0 0.1
2017-Dec-08 20:56N 35°27' E 139°47'0 0.0
2017-Dec-08 20:29N 35°27' E 139°47'0 0.0
2017-Dec-08 19:59N 35°27' E 139°47'0 0.0
2017-Dec-08 19:29N 35°27' E 139°47'0 0.1
2017-Dec-08 18:59N 35°27' E 139°47'0 0.0
2017-Dec-08 18:29N 35°27' E 139°47'0 0.1
2017-Dec-08 17:59N 35°27' E 139°47'0 0.1
2017-Dec-08 17:26N 35°27' E 139°47'0 0.0
2017-Dec-08 16:59N 35°27' E 139°47'0 0.1
2017-Dec-08 16:29N 35°27' E 139°47'0 0.0
2017-Dec-08 15:59N 35°27' E 139°47'0 0.0
2017-Dec-08 15:29N 35°27' E 139°47'0 0.0
2017-Dec-08 14:59N 35°27' E 139°47'0 0.0
2017-Dec-08 14:29N 35°27' E 139°47'0 0.0
2017-Dec-08 13:59N 35°27' E 139°47'0 0.1
2017-Dec-08 13:29N 35°27' E 139°47'0 0.0
2017-Dec-08 12:59N 35°27' E 139°47'0 0.1
2017-Dec-08 12:29N 35°27' E 139°47'0 0.0
2017-Dec-08 11:59N 35°27' E 139°47'0 0.0
2017-Dec-08 11:29N 35°27' E 139°47'0 0.1
2017-Dec-08 10:59N 35°27' E 139°47'0 0.1
2017-Dec-08 10:29N 35°27' E 139°47'0 0.1
2017-Dec-08 09:56N 35°27' E 139°47'0 0.1
2017-Dec-08 09:29N 35°27' E 139°47'0 0.1
2017-Dec-08 08:59N 35°27' E 139°47'0 0.0
2017-Dec-08 08:29N 35°27' E 139°47'0 0.2
2017-Dec-08 07:59N 35°27' E 139°47'0 0.1
2017-Dec-08 07:30N 35°27' E 139°47'3 6.7
2017-Dec-08 07:00N 35°24' E 139°46'612.2
2017-Dec-08 06:30N 35°18' E 139°44'612.0
2017-Dec-08 06:00N 35°12' E 139°47'4 7.7
2017-Dec-08 05:30N 35°09' E 139°47'2 4.8
2017-Dec-08 05:00N 35°06' E 139°46'4 7.8
2017-Dec-08 04:30N 35°03' E 139°45'4 7.1
2017-Dec-08 04:00N 34°60' E 139°42'510.0
2017-Dec-08 03:30N 34°55' E 139°40'5 9.8
2017-Dec-08 03:00N 34°50' E 139°42'5 9.4
2017-Dec-08 02:30N 34°50' E 139°47'510.3
2017-Dec-08 01:59N 34°50' E 139°54'511.2
2017-Dec-08 01:30N 34°51' E 140°00'510.9
2017-Dec-08 01:00N 34°51' E 140°07'510.4
2017-Dec-08 00:30N 34°52' E 140°13'  
Track history (hours):
 
Tides and Currents Weather Stations Pressure Air Temp Water Temp Dewpoint Dewpoint Depression Visibility Wind Speed Wind Dir Waves Ship Positions

Venezia

Last reported at 2017-Dec-10 00:27 UTC. Time now 2017-Dec-18 16:48 UTC.
Position N 34°08' E 138°13'.
Warning: this ship's position is 8 days out of date.

Length 199 m; draft 11.5 m.

Type: Cargo ship. MMSI: 248457000.

Date/timePositionNaut miles runAvg speedWind from/ knotsBaromVisibWave heightAir tempDewpointWater temp
2017-Dec-10 00:27N 34°08' E 138°13'713.5
2017-Dec-09 23:55N 34°11' E 138°22'613.4
2017-Dec-09 23:30N 34°13' E 138°28'713.3
2017-Dec-09 23:00N 34°17' E 138°34'713.1
2017-Dec-09 22:30N 34°20' E 138°41'712.9
2017-Dec-09 21:57N 34°24' E 138°48'612.6
2017-Dec-09 21:30N 34°27' E 138°54'612.0
2017-Dec-09 21:00N 34°30' E 139°00'711.7
2017-Dec-09 20:26N 34°36' E 139°05'511.8
2017-Dec-09 19:59N 34°40' E 139°08'612.5
2017-Dec-09 19:30N 34°46' E 139°11'612.3
2017-Dec-09 19:00N 34°51' E 139°14'611.7
2017-Dec-09 18:30N 34°55' E 139°20'612.3
2017-Dec-09 18:00N 34°58' E 139°26'612.5
2017-Dec-09 17:30N 35°01' E 139°33'612.7
2017-Dec-09 17:00N 35°04' E 139°40'611.7
2017-Dec-09 16:30N 35°08' E 139°45'611.3
2017-Dec-09 16:00N 35°14' E 139°46'611.9
2017-Dec-09 15:30N 35°19' E 139°43'612.2
2017-Dec-09 15:00N 35°25' E 139°44'611.4
2017-Dec-09 14:30N 35°30' E 139°48'3 6.2
2017-Dec-09 14:00N 35°30' E 139°44'0 0.4
2017-Dec-09 13:30N 35°30' E 139°44'0 0.0
2017-Dec-09 13:00N 35°30' E 139°44'0 0.0
2017-Dec-09 12:30N 35°30' E 139°44'0 0.0
2017-Dec-09 12:00N 35°30' E 139°44'0 0.0
2017-Dec-09 11:30N 35°30' E 139°44'0 0.0
2017-Dec-09 11:00N 35°30' E 139°44'0 0.0
2017-Dec-09 10:30N 35°30' E 139°44'0 0.0
2017-Dec-09 10:00N 35°30' E 139°44'0 0.0
2017-Dec-09 09:30N 35°30' E 139°44'0 0.0
2017-Dec-09 09:00N 35°30' E 139°44'0 0.0
2017-Dec-09 08:30N 35°30' E 139°44'0 0.0
2017-Dec-09 08:00N 35°30' E 139°44'0 0.0
2017-Dec-09 07:30N 35°30' E 139°44'0 0.0
2017-Dec-09 06:57N 35°30' E 139°44'0 0.0
2017-Dec-09 06:30N 35°30' E 139°44'0 0.0
2017-Dec-09 06:00N 35°30' E 139°44'0 0.0
2017-Dec-09 05:30N 35°30' E 139°44'0 0.0
2017-Dec-09 05:00N 35°30' E 139°44'0 0.0
2017-Dec-09 04:30N 35°30' E 139°44'0 0.0
2017-Dec-09 03:57N 35°30' E 139°44'0 0.0
2017-Dec-09 03:30N 35°30' E 139°44'0 0.0
2017-Dec-09 03:00N 35°30' E 139°44'0 0.0
2017-Dec-09 02:30N 35°30' E 139°44'0 0.0
2017-Dec-09 02:00N 35°30' E 139°44'0 0.0
2017-Dec-09 01:30N 35°30' E 139°44'0 0.0
2017-Dec-09 00:57N 35°30' E 139°44'0 0.0
2017-Dec-09 00:30N 35°30' E 139°44'0 0.0
2017-Dec-09 00:00N 35°30' E 139°44'0 0.0
2017-Dec-08 23:30N 35°30' E 139°44'0 0.0
2017-Dec-08 23:00N 35°30' E 139°44'2 4.1
2017-Dec-08 22:31N 35°29' E 139°42'3 6.6
2017-Dec-08 22:00N 35°27' E 139°45'1 1.9
2017-Dec-08 21:29N 35°27' E 139°47'0 0.1
2017-Dec-08 20:56N 35°27' E 139°47'0 0.0
2017-Dec-08 20:29N 35°27' E 139°47'0 0.0
2017-Dec-08 19:59N 35°27' E 139°47'0 0.0
2017-Dec-08 19:29N 35°27' E 139°47'0 0.1
2017-Dec-08 18:59N 35°27' E 139°47'0 0.0
2017-Dec-08 18:29N 35°27' E 139°47'0 0.1
2017-Dec-08 17:59N 35°27' E 139°47'0 0.1
2017-Dec-08 17:26N 35°27' E 139°47'0 0.0
2017-Dec-08 16:59N 35°27' E 139°47'0 0.1
2017-Dec-08 16:29N 35°27' E 139°47'0 0.0
2017-Dec-08 15:59N 35°27' E 139°47'0 0.0
2017-Dec-08 15:29N 35°27' E 139°47'0 0.0
2017-Dec-08 14:59N 35°27' E 139°47'0 0.0
2017-Dec-08 14:29N 35°27' E 139°47'0 0.0
2017-Dec-08 13:59N 35°27' E 139°47'0 0.1
2017-Dec-08 13:29N 35°27' E 139°47'0 0.0
2017-Dec-08 12:59N 35°27' E 139°47'0 0.1
2017-Dec-08 12:29N 35°27' E 139°47'0 0.0
2017-Dec-08 11:59N 35°27' E 139°47'0 0.0
2017-Dec-08 11:29N 35°27' E 139°47'0 0.1
2017-Dec-08 10:59N 35°27' E 139°47'0 0.1
2017-Dec-08 10:29N 35°27' E 139°47'0 0.1
2017-Dec-08 09:56N 35°27' E 139°47'0 0.1
2017-Dec-08 09:29N 35°27' E 139°47'0 0.1
2017-Dec-08 08:59N 35°27' E 139°47'0 0.0
2017-Dec-08 08:29N 35°27' E 139°47'0 0.2
2017-Dec-08 07:59N 35°27' E 139°47'0 0.1
2017-Dec-08 07:30N 35°27' E 139°47'3 6.7
2017-Dec-08 07:00N 35°24' E 139°46'612.2
2017-Dec-08 06:30N 35°18' E 139°44'612.0
2017-Dec-08 06:00N 35°12' E 139°47'4 7.7
2017-Dec-08 05:30N 35°09' E 139°47'2 4.8
2017-Dec-08 05:00N 35°06' E 139°46'4 7.8
2017-Dec-08 04:30N 35°03' E 139°45'4 7.1
2017-Dec-08 04:00N 34°60' E 139°42'510.0
2017-Dec-08 03:30N 34°55' E 139°40'5 9.8
2017-Dec-08 03:00N 34°50' E 139°42'5 9.4
2017-Dec-08 02:30N 34°50' E 139°47'510.3
2017-Dec-08 01:59N 34°50' E 139°54'511.2
2017-Dec-08 01:30N 34°51' E 140°00'510.9
2017-Dec-08 01:00N 34°51' E 140°07'510.4
2017-Dec-08 00:30N 34°52' E 140°13'  

Dump ship's entire track history